Time;durP1;ratioP1;P1;durP2;ratioP2;P2;SDS_P1;SDS_P2;PMS_P1;PMS_P2;Temp;Humidity;BMP_temperature;BMP_pressure;BME280_temperature;BME280_humidity;BME280_pressure;Samples;Min_cycle;Max_cycle;Signal;HPM_P1;HPM_P2
2024/01/01 00:02:09;;;;;;;164.30;90.70;;;;;;;3.00;94.96;97612.45;435355;1251;99249;-40
2024/01/01 00:12:15;;;;;;;180.30;93.50;;;;;;;2.79;95.09;97609.58;435283;1253;109387;-38
2024/01/01 00:22:21;;;;;;;130.00;75.80;;;;;;;2.68;94.97;97605.71;435389;1250;99212;-39
2024/01/01 00:32:26;;;;;;;108.50;62.70;;;;;;;2.78;95.63;97615.97;435341;1251;112453;-40
2024/01/01 00:42:32;;;;;;;112.10;60.70;;;;;;;2.94;95.58;97630.55;435347;1251;107679;-39
2024/01/01 00:52:39;;;;;;;95.60;55.80;;;;;;;3.01;95.60;97630.13;435087;1254;459459;-39
2024/01/01 01:02:46;;;;;;;103.20;61.70;;;;;;;3.05;95.71;97631.78;435261;1263;108217;-40
2024/01/01 01:23:01;;;;;;;152.70;77.30;;;;;;;3.16;95.81;97632.48;435432;1251;110891;-39
2024/01/01 01:33:08;;;;;;;153.20;77.80;;;;;;;3.01;95.85;97639.58;435256;1254;107696;-40
2024/01/01 01:43:24;;;;;;;101.00;59.30;;;;;;;2.94;95.70;97656.47;435395;1251;99067;-39
2024/01/01 01:53:32;;;;;;;80.00;45.20;;;;;;;2.94;95.76;97653.54;435314;1250;107793;-39
2024/01/01 02:03:39;;;;;;;73.00;44.40;;;;;;;3.03;96.12;97640.08;435321;1254;97956;-40
2024/01/01 02:13:46;;;;;;;61.80;39.10;;;;;;;3.16;96.20;97645.04;435361;1255;111953;-40
2024/01/01 02:23:54;;;;;;;75.70;45.70;;;;;;;3.29;96.64;97652.87;435359;1253;107633;-40
2024/01/01 02:34:02;;;;;;;60.80;35.30;;;;;;;3.35;96.77;97659.36;435478;1252;98015;-40
2024/01/01 02:44:09;;;;;;;57.60;32.30;;;;;;;3.35;96.77;97658.84;436014;1248;107926;-39
2024/01/01 02:54:17;;;;;;;40.60;27.70;;;;;;;3.39;96.63;97650.58;435011;1253;99225;-39
2024/01/01 03:14:31;;;;;;;45.30;31.60;;;;;;;3.64;96.59;97659.14;435074;1257;108971;-40
2024/01/01 03:24:37;;;;;;;30.90;20.10;;;;;;;3.80;96.84;97661.80;435003;1267;99237;-40
2024/01/01 03:34:43;;;;;;;43.50;25.70;;;;;;;3.88;96.88;97646.66;435141;1258;108403;-41
2024/01/01 03:44:48;;;;;;;51.70;31.90;;;;;;;3.87;96.84;97635.20;435040;1257;99126;-41
2024/01/01 03:54:57;;;;;;;40.20;25.90;;;;;;;3.86;96.50;97626.77;434995;1256;111931;-40
2024/01/01 04:05:04;;;;;;;31.10;20.90;;;;;;;3.78;96.22;97628.58;435031;1253;106581;-39
2024/01/01 04:15:12;;;;;;;35.90;20.60;;;;;;;3.70;96.21;97621.82;435000;1257;98503;-40
2024/01/01 04:25:19;;;;;;;48.10;29.80;;;;;;;3.67;96.40;97612.27;435087;1252;107856;-40
2024/01/01 04:35:26;;;;;;;58.00;31.50;;;;;;;3.65;96.60;97609.64;434885;1257;98114;-40
2024/01/01 04:55:40;;;;;;;42.60;26.10;;;;;;;3.55;96.15;97617.28;434944;1253;107153;-40
2024/01/01 05:05:46;;;;;;;43.40;29.10;;;;;;;3.59;96.53;97617.75;435083;1258;99205;-40
2024/01/01 05:15:53;;;;;;;48.60;30.80;;;;;;;3.67;96.51;97620.76;434965;1253;108066;-41
2024/01/01 05:25:59;;;;;;;70.00;39.20;;;;;;;3.71;96.73;97604.96;435013;1257;97954;-41
2024/01/01 05:36:11;;;;;;;68.10;37.90;;;;;;;3.72;97.00;97602.02;435166;1256;112905;-40
2024/01/01 05:46:17;;;;;;;73.80;41.40;;;;;;;3.70;96.65;97597.93;434983;1253;107318;-40
2024/01/01 06:06:31;;;;;;;30.00;17.90;;;;;;;3.75;96.55;97598.83;434995;1252;107641;-40
2024/01/01 06:16:38;;;;;;;30.70;18.30;;;;;;;3.77;96.65;97601.50;435077;1253;99203;-41
2024/01/01 06:26:46;;;;;;;49.60;25.00;;;;;;;3.73;96.75;97602.69;435112;1257;112684;-39
2024/01/01 06:36:51;;;;;;;50.80;26.00;;;;;;;3.65;96.96;97607.86;435067;1257;108699;-40
2024/01/01 06:46:59;;;;;;;32.40;17.30;;;;;;;3.60;96.88;97603.59;434979;1252;99269;-39
2024/01/01 06:57:05;;;;;;;24.80;15.50;;;;;;;3.62;96.93;97602.98;434897;1253;108269;-39
2024/01/01 07:07:12;;;;;;;32.30;16.50;;;;;;;3.66;97.24;97605.20;434980;1257;99235;-38
2024/01/01 07:17:20;;;;;;;24.00;13.50;;;;;;;3.68;97.42;97593.31;435101;1256;111863;-40
2024/01/01 07:27:28;;;;;;;21.10;13.10;;;;;;;3.69;97.55;97589.92;434806;1257;107768;-40
2024/01/01 07:37:34;;;;;;;20.90;12.20;;;;;;;3.73;97.65;97588.25;434941;1252;99229;-40
2024/01/01 07:47:41;;;;;;;19.90;12.20;;;;;;;3.74;97.78;97594.08;434834;1259;108591;-40
2024/01/01 07:57:49;;;;;;;24.10;15.70;;;;;;;3.79;97.94;97604.88;434945;1253;97957;-40
2024/01/01 08:07:57;;;;;;;30.60;16.40;;;;;;;3.84;98.11;97622.15;434951;1257;111957;-39
2024/01/01 08:18:04;;;;;;;;;;;;;;;3.78;98.12;97629.42;434945;1258;108160;-40
2024/01/01 08:28:11;;;;;;;34.70;16.70;;;;;;;3.73;98.28;97629.00;435028;1257;98068;-40
2024/01/01 08:38:18;;;;;;;22.00;12.40;;;;;;;3.78;98.13;97629.66;434929;1259;111977;-40
2024/01/01 08:58:28;;;;;;;25.30;16.10;;;;;;;3.99;98.29;97638.38;434957;1258;99254;-40
2024/01/01 09:18:41;;;;;;;25.70;16.50;;;;;;;3.99;98.16;97650.73;434902;1253;99250;-39
2024/01/01 09:28:50;;;;;;;16.20;11.80;;;;;;;3.99;98.35;97657.31;435178;1253;111015;-39
2024/01/01 09:38:57;;;;;;;15.90;8.30;;;;;;;3.99;98.27;97666.46;435100;1253;107864;-37
2024/01/01 09:49:04;;;;;;;29.90;19.70;;;;;;;3.89;98.31;97675.66;435091;1253;98568;-39
2024/01/01 09:59:10;;;;;;;22.20;13.10;;;;;;;3.81;98.42;97665.05;434992;1257;107579;-38
2024/01/01 10:09:17;;;;;;;17.20;12.60;;;;;;;3.76;98.39;97674.11;435042;1257;99263;-40
2024/01/01 10:29:34;;;;;;;30.30;15.70;;;;;;;3.83;98.39;97670.19;434893;1257;108047;-40
2024/01/01 10:39:44;;;;;;;48.00;25.40;;;;;;;3.83;98.20;97658.73;434949;1259;99266;-40
2024/01/01 10:49:49;;;;;;;26.30;13.30;;;;;;;3.76;98.25;97647.13;435089;1259;108212;-39
2024/01/01 11:00:01;;;;;;;31.50;16.90;;;;;;;3.68;98.37;97637.03;434897;1253;99244;-39
2024/01/01 11:10:09;;;;;;;42.40;27.60;;;;;;;3.73;98.44;97616.37;434975;1253;110516;-39
2024/01/01 11:20:49;;;;;;;21.10;12.20;;;;;;;3.85;98.34;97610.88;434998;1253;108205;-41
2024/01/01 11:30:56;;;;;;;23.90;16.00;;;;;;;3.97;98.53;97595.85;434899;1257;98767;-39
2024/01/01 11:51:09;;;;;;;46.10;21.70;;;;;;;4.13;98.63;97576.59;434895;1258;99329;-39
2024/01/01 12:01:15;;;;;;;48.80;19.60;;;;;;;4.15;98.61;97583.65;434989;1254;111156;-38
2024/01/01 12:11:22;;;;;;;37.20;18.90;;;;;;;4.12;98.99;97585.80;434964;1258;109851;-38
2024/01/01 12:31:45;;;;;;;28.20;14.40;;;;;;;4.21;98.95;97584.19;435120;1257;107837;-39
2024/01/01 12:41:53;;;;;;;21.60;12.80;;;;;;;4.29;99.09;97580.08;434818;1259;99241;-39
2024/01/01 12:52:00;;;;;;;22.00;12.10;;;;;;;4.37;99.28;97581.05;434757;1257;420445;-39
2024/01/01 13:02:07;;;;;;;36.40;15.40;;;;;;;4.47;99.42;97575.95;434852;1258;107724;-40
2024/01/01 13:12:15;;;;;;;39.60;22.00;;;;;;;4.43;99.39;97577.55;435009;1253;99135;-38
2024/01/01 13:22:24;;;;;;;121.00;38.30;;;;;;;4.35;99.50;97573.73;435079;1258;107767;-40
2024/01/01 13:32:30;;;;;;;42.50;23.50;;;;;;;4.35;99.42;97581.88;435033;1257;99221;-39
2024/01/01 13:42:36;;;;;;;23.00;13.30;;;;;;;4.38;99.58;97593.11;434989;1253;111006;-40
2024/01/01 13:52:44;;;;;;;23.10;14.50;;;;;;;4.45;99.69;97591.33;434967;1257;108186;-40
2024/01/01 14:02:51;;;;;;;27.80;13.90;;;;;;;4.50;99.78;97597.98;435045;1266;98448;-38
2024/01/01 14:12:58;;;;;;;21.40;15.50;;;;;;;4.54;99.81;97600.71;434902;1257;108563;-40
2024/01/01 14:23:04;;;;;;;26.50;12.70;;;;;;;4.52;99.84;97606.13;435025;1253;99341;-39
2024/01/01 14:33:09;;;;;;;23.70;13.30;;;;;;;4.55;99.78;97614.75;435040;1253;111676;-39
2024/01/01 14:53:21;;;;;;;37.60;22.10;;;;;;;4.41;99.88;97624.86;434981;1260;99224;-40
2024/01/01 15:03:28;;;;;;;25.40;15.00;;;;;;;4.38;99.79;97630.59;434839;1259;109323;-39
2024/01/01 15:13:37;;;;;;;51.80;26.80;;;;;;;4.38;100.00;97639.65;434970;1266;99247;-39
2024/01/01 15:23:45;;;;;;;39.30;25.40;;;;;;;4.43;100.00;97641.50;435123;1257;113302;-39
2024/01/01 15:33:52;;;;;;;38.20;21.50;;;;;;;4.47;100.00;97649.23;434768;1266;109404;-39
2024/01/01 15:43:59;;;;;;;58.10;30.90;;;;;;;4.52;100.00;97648.58;434825;1257;99236;-40
2024/01/01 16:04:11;;;;;;;67.40;33.80;;;;;;;4.47;100.00;97670.35;434905;1256;99241;-40
2024/01/01 16:14:15;;;;;;;42.90;26.20;;;;;;;4.37;99.99;97680.38;434989;1264;111838;-40
2024/01/01 16:34:28;;;;;;;27.50;18.10;;;;;;;4.20;99.82;97693.98;435057;1266;98300;-40
2024/01/01 16:44:36;;;;;;;28.70;15.50;;;;;;;4.09;99.79;97705.28;434985;1254;107435;-39
2024/01/01 16:54:46;;;;;;;32.10;18.30;;;;;;;4.02;99.89;97717.83;434978;1255;99256;-40
2024/01/01 17:14:58;;;;;;;30.10;18.10;;;;;;;3.95;99.92;97735.52;434868;1255;109508;-40
2024/01/01 17:35:09;;;;;;;80.40;41.10;;;;;;;3.78;100.00;97757.42;435057;1258;107691;-38
2024/01/01 17:45:16;;;;;;;49.80;26.50;;;;;;;3.82;99.96;97776.57;434945;1254;99218;-39
2024/01/01 17:55:23;;;;;;;34.80;20.20;;;;;;;3.92;99.97;97783.19;434982;1257;111697;-40
2024/01/01 18:05:30;;;;;;;26.70;15.30;;;;;;;4.00;100.00;97781.23;434955;1256;109725;-40
2024/01/01 18:15:37;;;;;;;26.90;16.60;;;;;;;4.05;100.00;97789.42;434857;1266;99234;-40
2024/01/01 18:25:43;;;;;;;30.40;20.70;;;;;;;4.08;100.00;97794.23;434938;1258;108931;-39
2024/01/01 18:35:50;;;;;;;40.10;23.70;;;;;;;4.12;100.00;97798.80;435065;1252;99235;-38
2024/01/01 18:45:55;;;;;;;65.40;30.50;;;;;;;4.16;100.00;97807.48;435034;1254;111037;-40
2024/01/01 18:56:05;;;;;;;57.00;29.40;;;;;;;4.09;100.00;97807.02;435155;1254;111591;-39
2024/01/01 19:06:13;;;;;;;40.90;22.80;;;;;;;4.04;99.94;97811.04;434725;1258;99228;-39
2024/01/01 19:16:21;;;;;;;31.70;16.80;;;;;;;4.07;99.91;97816.19;435114;1257;107278;-39
2024/01/01 19:26:25;;;;;;;38.50;21.50;;;;;;;4.12;99.86;97816.52;435077;1256;99240;-40
2024/01/01 19:36:31;;;;;;;41.70;23.80;;;;;;;4.14;99.80;97830.27;435067;1258;111901;-40
2024/01/01 19:56:44;;;;;;;35.80;22.30;;;;;;;3.92;99.78;97826.81;435146;1257;99221;-40
2024/01/01 20:16:55;;;;;;;24.10;12.30;;;;;;;4.06;99.83;97825.11;434992;1257;99241;-39
2024/01/01 20:27:03;;;;;;;37.00;19.10;;;;;;;4.01;99.88;97827.09;435144;1257;112175;-39
2024/01/01 20:37:10;;;;;;;43.90;22.70;;;;;;;3.99;99.94;97830.96;434922;1257;108820;-40
2024/01/01 20:47:16;;;;;;;44.90;21.90;;;;;;;3.98;99.88;97830.64;435019;1257;98817;-40
2024/01/01 21:07:27;;;;;;;32.40;15.60;;;;;;;3.87;99.43;97830.06;435073;1254;107635;-39
2024/01/01 21:17:34;;;;;;;26.60;13.70;;;;;;;3.87;99.50;97823.53;435097;1252;99230;-40
2024/01/01 21:38:04;;;;;;;21.10;13.40;;;;;;;3.90;99.53;97842.07;434979;1253;99227;-39
2024/01/01 21:48:16;;;;;;;23.10;12.30;;;;;;;3.94;99.55;97843.58;434831;1253;112159;-40
2024/01/01 22:08:26;;;;;;;30.10;15.40;;;;;;;3.90;99.67;97851.77;435255;1257;98554;-41
2024/01/01 22:18:31;;;;;;;20.20;10.80;;;;;;;3.90;99.46;97863.63;435059;1253;99342;-38
2024/01/01 22:38:43;;;;;;;29.40;17.70;;;;;;;4.09;99.40;97847.89;435020;1252;99234;-39
2024/01/01 22:48:49;;;;;;;33.70;15.40;;;;;;;4.07;99.33;97844.99;435031;1257;107302;-40
2024/01/01 22:58:56;;;;;;;25.60;14.10;;;;;;;3.96;99.21;97849.89;434872;1257;99355;-39
2024/01/01 23:19:10;;;;;;;22.40;9.20;;;;;;;3.89;99.07;97843.16;435139;1257;108228;-41
2024/01/01 23:29:16;;;;;;;32.20;14.90;;;;;;;3.85;98.82;97834.01;435076;1256;99260;-40
2024/01/01 23:39:21;;;;;;;36.70;18.10;;;;;;;3.66;98.55;97829.62;435118;1258;108438;-39
2024/01/01 23:59:32;;;;;;;29.20;16.60;;;;;;;3.40;99.00;97834.38;435064;1257;111068;-41
